Time;durP1;ratioP1;P1;durP2;ratioP2;P2;SDS_P1;SDS_P2;PMS_P1;PMS_P2;Temp;Humidity;BMP_temperature;BMP_pressure;BME280_temperature;BME280_humidity;BME280_pressure;Samples;Min_cycle;Max_cycle;Signal;HPM_P1;HPM_P2
2022/11/25 00:02:17;;;;;;;13.18;3.90;;;;;;;5.49;93.18;100834.81;5056383;28;20041;-59
2022/11/25 00:04:42;;;;;;;13.13;4.10;;;;;;;5.50;93.09;100844.22;5055433;28;20505;-58
2022/11/25 00:07:08;;;;;;;19.98;4.45;;;;;;;5.57;93.46;100833.22;5049589;28;20143;-60
2022/11/25 00:09:33;;;;;;;20.30;6.90;;;;;;;5.56;92.88;100828.94;5054219;28;20081;-59
2022/11/25 00:11:58;;;;;;;19.98;6.63;;;;;;;5.63;93.22;100823.03;5048642;28;20037;-58
2022/11/25 00:14:24;;;;;;;16.50;4.45;;;;;;;5.59;92.87;100823.84;5051794;28;20049;-59
2022/11/25 00:16:49;;;;;;;16.67;4.70;;;;;;;5.54;93.27;100822.94;5055317;28;20547;-59
2022/11/25 00:19:15;;;;;;;14.75;3.80;;;;;;;5.52;93.18;100819.47;5049750;28;20683;-59
2022/11/25 00:21:40;;;;;;;11.50;3.55;;;;;;;5.52;93.12;100827.16;5057145;28;20071;-59
2022/11/25 00:24:06;;;;;;;20.08;5.10;;;;;;;5.54;93.48;100818.66;5049513;28;20048;-58
2022/11/25 00:26:33;;;;;;;20.33;4.70;;;;;;;5.75;94.23;100811.22;5026615;28;20060;-59
2022/11/25 00:29:01;;;;;;;19.10;5.18;;;;;;;5.85;94.97;100808.75;5030002;28;20644;-59
2022/11/25 00:31:32;;;;;;;17.23;4.13;;;;;;;5.90;94.82;100807.13;5035191;28;20061;-58
2022/11/25 00:33:57;;;;;;;20.20;6.60;;;;;;;5.99;95.23;100805.50;5036436;28;20040;-59
2022/11/25 00:36:34;;;;;;;23.83;5.13;;;;;;;6.05;94.77;100797.84;5052722;28;20062;-58
2022/11/25 00:39:01;;;;;;;19.23;4.45;;;;;;;6.13;94.62;100791.13;5038142;28;20107;-65
2022/11/25 00:46:58;;;;;;;19.42;4.07;;;;;;;6.35;94.87;100782.75;5041019;28;20040;-65
2022/11/25 00:49:24;;;;;;;18.40;4.60;;;;;;;6.44;94.86;100770.88;5049277;28;20040;-65
2022/11/25 00:51:49;;;;;;;14.60;4.75;;;;;;;6.49;94.58;100771.75;5049036;28;20094;-65
2022/11/25 00:54:15;;;;;;;10.82;3.80;;;;;;;6.52;94.13;100771.78;5055503;28;20645;-65
2022/11/25 00:56:40;;;;;;;10.50;4.20;;;;;;;6.59;94.13;100773.53;5056477;28;20102;-65
2022/11/25 00:59:06;;;;;;;15.88;4.28;;;;;;;6.69;94.38;100775.34;5053282;28;20947;-65
2022/11/25 01:01:32;;;;;;;20.67;5.43;;;;;;;6.84;94.05;100778.00;5054932;28;20032;-65
2022/11/25 01:03:58;;;;;;;22.92;4.78;;;;;;;6.94;93.60;100769.53;5051671;28;20040;-65
2022/11/25 01:06:24;;;;;;;14.10;4.65;;;;;;;7.01;93.54;100776.41;5051374;28;20044;-65
2022/11/25 01:08:49;;;;;;;20.13;4.47;;;;;;;7.04;92.82;100766.16;5051563;28;20033;-65
2022/11/25 01:11:17;;;;;;;19.38;5.53;;;;;;;7.09;92.39;100763.63;5054554;28;20509;-65
2022/11/25 01:13:42;;;;;;;18.60;4.60;;;;;;;7.08;92.59;100760.19;5051724;28;20044;-65
2022/11/25 01:16:11;;;;;;;20.83;5.13;;;;;;;7.13;92.21;100757.63;5057651;28;20043;-65
2022/11/25 01:18:36;;;;;;;12.85;4.10;;;;;;;7.17;92.47;100767.13;5053091;28;20048;-65
2022/11/25 01:21:05;;;;;;;15.13;4.60;;;;;;;7.18;92.12;100756.81;5051454;28;20040;-65
2022/11/25 01:23:31;;;;;;;14.40;4.70;;;;;;;7.17;92.34;100759.41;5044158;28;20055;-65
2022/11/25 01:25:59;;;;;;;14.68;4.80;;;;;;;7.15;92.27;100763.66;5053321;28;20040;-65
2022/11/25 01:28:24;;;;;;;13.70;3.90;;;;;;;7.14;92.15;100767.06;5050568;28;20563;-65
2022/11/25 01:31:08;;;;;;;11.48;4.00;;;;;;;7.13;92.72;100767.91;5051552;28;20041;-65
2022/11/25 01:33:34;;;;;;;17.55;5.35;;;;;;;7.12;92.72;100769.59;5053739;28;20383;-65
2022/11/25 01:36:04;;;;;;;18.85;3.55;;;;;;;7.13;92.61;100770.47;5056766;28;20039;-65
2022/11/25 01:38:31;;;;;;;16.05;4.30;;;;;;;7.13;92.87;100771.34;5053654;28;20032;-65
2022/11/25 01:40:57;;;;;;;18.90;4.93;;;;;;;7.15;92.71;100772.22;5056468;28;20052;-65
2022/11/25 01:43:22;;;;;;;13.77;4.22;;;;;;;7.21;93.03;100774.84;5053815;28;20029;-65
2022/11/25 01:45:48;;;;;;;11.88;3.33;;;;;;;7.20;92.40;100765.44;5054237;28;20045;-65
2022/11/25 01:48:39;;;;;;;14.20;5.05;;;;;;;7.22;92.60;100768.84;5052839;28;20040;-65
2022/11/25 01:51:20;;;;;;;11.98;4.18;;;;;;;7.23;92.44;100770.59;5042932;28;20768;-65
2022/11/25 01:53:47;;;;;;;15.82;4.38;;;;;;;7.24;92.35;100767.13;5036432;28;20140;-65
2022/11/25 01:56:12;;;;;;;9.90;3.50;;;;;;;7.28;92.62;100763.75;5030917;28;20041;-65
2022/11/25 01:58:39;;;;;;;19.00;4.72;;;;;;;7.35;92.77;100757.78;5034431;28;20037;-65
2022/11/25 02:01:05;;;;;;;18.13;4.60;;;;;;;7.43;92.79;100755.25;5033632;28;20041;-65
2022/11/25 02:03:35;;;;;;;19.48;4.28;;;;;;;7.52;92.35;100755.28;5056552;28;20036;-65
2022/11/25 02:06:07;;;;;;;17.10;4.75;;;;;;;7.61;92.34;100747.59;5033705;28;20130;-61
2022/11/25 02:08:33;;;;;;;17.05;5.65;;;;;;;7.69;91.91;100751.03;5037859;28;20527;-61
2022/11/25 02:11:00;;;;;;;18.08;4.80;;;;;;;7.78;91.19;100735.63;5046754;28;20041;-61
2022/11/25 02:13:26;;;;;;;18.85;4.70;;;;;;;7.91;91.37;100739.97;5054244;28;20056;-61
2022/11/25 02:15:52;;;;;;;21.40;4.22;;;;;;;7.94;91.15;100734.81;5050866;28;20123;-61
2022/11/25 02:18:17;;;;;;;14.13;4.22;;;;;;;8.02;90.37;100745.97;5053293;28;20036;-61
2022/11/25 02:20:43;;;;;;;17.73;4.57;;;;;;;8.07;90.63;100737.41;5030524;28;20041;-61
2022/11/25 02:23:25;;;;;;;16.55;3.40;;;;;;;8.11;89.65;100739.13;5040482;28;20039;-61
2022/11/25 02:25:52;;;;;;;14.73;3.53;;;;;;;8.17;89.52;100739.97;5050171;28;20124;-61
2022/11/25 02:28:21;;;;;;;17.55;4.93;;;;;;;8.23;88.89;100734.84;5053395;28;20074;-61
2022/11/25 02:30:46;;;;;;;17.98;4.35;;;;;;;8.28;89.06;100737.41;5054408;28;20178;-60
2022/11/25 02:33:13;;;;;;;12.18;3.90;;;;;;;8.31;89.00;100733.13;5058390;28;20036;-62
2022/11/25 02:35:40;;;;;;;13.27;4.07;;;;;;;8.35;89.06;100726.25;5038715;28;20071;-61
2022/11/25 02:38:16;;;;;;;19.33;4.50;;;;;;;8.40;88.21;100721.97;5035867;28;20497;-61
2022/11/25 02:40:59;;;;;;;12.05;3.75;;;;;;;8.42;88.36;100712.53;5035131;28;21114;-61
2022/11/25 02:43:26;;;;;;;15.05;3.97;;;;;;;8.42;87.73;100710.81;5041903;28;20057;-61
2022/11/25 02:46:01;;;;;;;15.27;4.53;;;;;;;8.46;87.47;100714.22;5053017;28;20037;-61
2022/11/25 02:48:31;;;;;;;17.42;4.43;;;;;;;8.50;87.41;100721.97;5056628;28;20024;-60
2022/11/25 02:50:57;;;;;;;18.95;4.45;;;;;;;8.56;86.59;100718.53;5048686;28;20104;-61
2022/11/25 02:53:23;;;;;;;18.15;4.82;;;;;;;8.57;87.22;100709.94;5056421;28;20036;-61
2022/11/25 02:55:48;;;;;;;14.55;3.95;;;;;;;8.56;86.30;100709.09;5056527;28;20036;-61
2022/11/25 02:58:14;;;;;;;21.67;5.25;;;;;;;8.60;86.62;100704.78;5053115;28;20609;-61
2022/11/25 03:00:40;;;;;;;14.73;3.30;;;;;;;8.60;86.46;100707.38;5056594;28;20044;-61
2022/11/25 03:03:06;;;;;;;13.65;3.88;;;;;;;8.61;86.38;100705.63;5059035;28;20036;-61
2022/11/25 03:05:31;;;;;;;16.60;3.88;;;;;;;8.62;86.40;100705.63;5058274;28;20040;-61
2022/11/25 03:07:57;;;;;;;11.25;3.50;;;;;;;8.60;86.31;100706.50;5060819;28;20173;-61
2022/11/25 03:10:22;;;;;;;15.20;3.50;;;;;;;8.58;86.20;100701.34;5058728;28;20467;-61
2022/11/25 03:12:48;;;;;;;13.63;3.90;;;;;;;8.58;86.48;100703.91;5061159;28;20082;-60
2022/11/25 03:15:14;;;;;;;12.93;3.25;;;;;;;8.55;86.85;100714.22;5056800;28;20109;-61
2022/11/25 03:17:39;;;;;;;10.93;3.50;;;;;;;8.58;86.48;100706.50;5061544;28;20036;-62
2022/11/25 03:20:06;;;;;;;14.15;3.67;;;;;;;8.61;86.53;100703.03;5052315;28;20076;-61
2022/11/25 03:22:31;;;;;;;18.52;4.07;;;;;;;8.62;86.66;100703.06;5058162;28;20040;-61
2022/11/25 03:24:56;;;;;;;11.48;3.47;;;;;;;8.64;86.25;100698.75;5054991;28;20040;-61
2022/11/25 03:27:22;;;;;;;11.00;4.03;;;;;;;8.68;86.05;100705.63;5054579;28;20032;-60
2022/11/25 03:29:48;;;;;;;13.65;3.60;;;;;;;8.69;85.81;100704.78;5054586;28;20028;-61
2022/11/25 03:32:14;;;;;;;9.13;3.42;;;;;;;8.68;86.09;100709.91;5051645;28;20832;-61
2022/11/25 03:34:39;;;;;;;9.88;3.10;;;;;;;8.69;85.28;100715.09;5057956;28;20033;-61
2022/11/25 03:37:05;;;;;;;16.83;4.22;;;;;;;8.73;85.67;100726.22;5057362;28;20036;-60
2022/11/25 03:39:30;;;;;;;16.20;3.40;;;;;;;8.70;85.37;100726.22;5056930;28;20029;-61
2022/11/25 03:41:56;;;;;;;8.43;3.47;;;;;;;8.74;84.66;100733.97;5051643;28;20036;-61
2022/11/25 03:44:21;;;;;;;8.18;3.30;;;;;;;8.74;84.73;100738.25;5056725;28;20048;-61
2022/11/25 03:46:47;;;;;;;9.27;3.50;;;;;;;8.72;85.06;100737.41;5052287;28;20049;-61
2022/11/25 03:49:12;;;;;;;12.27;3.67;;;;;;;8.71;84.97;100744.28;5051554;28;20037;-61
2022/11/25 03:51:37;;;;;;;13.05;3.60;;;;;;;8.72;85.16;100750.28;5056617;28;20029;-61
2022/11/25 03:54:03;;;;;;;18.98;5.28;;;;;;;8.73;84.43;100752.00;5055769;28;20143;-61
2022/11/25 03:56:28;;;;;;;9.68;3.33;;;;;;;8.72;84.88;100765.75;5056187;28;20028;-61
2022/11/25 03:58:54;;;;;;;9.70;2.88;;;;;;;8.72;84.73;100764.03;5052790;28;20086;-61
2022/11/25 04:01:19;;;;;;;13.57;3.85;;;;;;;8.72;84.38;100758.03;5053088;28;20047;-60
2022/11/25 04:03:44;;;;;;;15.70;4.05;;;;;;;8.71;85.09;100761.44;5055058;28;20045;-60
2022/11/25 04:06:10;;;;;;;10.05;3.00;;;;;;;8.69;84.80;100770.91;5055572;28;20417;-61
2022/11/25 04:08:35;;;;;;;12.93;3.15;;;;;;;8.68;84.48;100774.34;5050967;28;20078;-60
2022/11/25 04:11:00;;;;;;;15.40;4.68;;;;;;;8.67;85.43;100775.19;5051950;28;20119;-61
2022/11/25 04:13:26;;;;;;;11.68;3.25;;;;;;;8.65;85.34;100764.03;5053757;28;20588;-61
2022/11/25 04:15:52;;;;;;;12.32;4.88;;;;;;;8.66;85.02;100768.34;5051834;28;20047;-61
2022/11/25 04:18:18;;;;;;;17.00;4.55;;;;;;;8.63;85.09;100774.34;5055131;28;20036;-61
2022/11/25 04:20:44;;;;;;;11.80;3.72;;;;;;;8.64;84.41;100783.78;5046346;28;20078;-61
2022/11/25 04:23:11;;;;;;;13.90;3.75;;;;;;;8.62;85.49;100777.78;5049268;28;20032;-61
2022/11/25 04:25:37;;;;;;;12.63;3.63;;;;;;;8.61;84.66;100786.34;5054960;28;20045;-61
2022/11/25 04:28:04;;;;;;;6.70;3.08;;;;;;;8.58;85.63;100781.19;5050540;28;20047;-61
2022/11/25 04:30:29;;;;;;;11.07;3.25;;;;;;;8.56;85.84;100786.38;5050494;28;20040;-60
2022/11/25 04:32:55;;;;;;;14.88;6.05;;;;;;;8.55;85.22;100783.78;5048543;28;20021;-61
2022/11/25 04:35:20;;;;;;;11.20;5.43;;;;;;;8.51;85.88;100782.94;5054088;28;20043;-61
2022/11/25 04:37:46;;;;;;;19.40;5.05;;;;;;;8.47;85.89;100785.50;5050733;28;20186;-61
2022/11/25 04:40:12;;;;;;;11.05;3.70;;;;;;;8.40;86.82;100792.34;5055796;28;20037;-61
2022/11/25 04:42:38;;;;;;;8.35;3.55;;;;;;;8.34;86.97;100799.22;5054977;28;20040;-60
2022/11/25 04:45:15;;;;;;;16.45;4.20;;;;;;;8.30;88.41;100797.50;5049308;28;20067;-61
2022/11/25 04:47:41;;;;;;;11.25;4.93;;;;;;;8.25;89.02;100792.34;5054103;28;20040;-61
2022/11/25 04:50:12;;;;;;;9.90;4.00;;;;;;;8.23;88.90;100796.63;5051752;28;20040;-61
2022/11/25 04:52:37;;;;;;;18.52;4.50;;;;;;;8.19;90.65;100789.75;5048856;28;20082;-61
2022/11/25 04:55:05;;;;;;;10.38;3.63;;;;;;;8.17;90.80;100801.78;5048476;28;20029;-61
2022/11/25 04:57:30;;;;;;;10.55;3.28;;;;;;;8.14;90.94;100809.50;5049350;28;20032;-61
2022/11/25 04:59:55;;;;;;;17.70;4.35;;;;;;;8.10;91.58;100802.59;5050499;28;20040;-61
2022/11/25 05:02:23;;;;;;;16.75;3.80;;;;;;;8.08;91.36;100809.47;5051035;28;20040;-61
2022/11/25 05:04:51;;;;;;;15.70;3.55;;;;;;;8.08;91.94;100809.47;5049684;28;20059;-61
2022/11/25 05:07:18;;;;;;;16.15;3.50;;;;;;;8.06;92.30;100816.34;5050568;28;20041;-62
2022/11/25 05:09:44;;;;;;;6.38;3.30;;;;;;;8.05;93.22;100816.31;5052006;28;20716;-60
2022/11/25 05:12:13;;;;;;;9.35;3.63;;;;;;;8.04;92.44;100812.06;5051135;28;20035;-61
2022/11/25 05:14:38;;;;;;;13.70;3.65;;;;;;;8.02;92.88;100820.63;5052382;28;20040;-62
2022/11/25 05:17:05;;;;;;;13.93;4.25;;;;;;;8.02;93.19;100810.31;5052400;28;20037;-61
2022/11/25 05:19:32;;;;;;;12.75;4.35;;;;;;;8.01;93.22;100812.91;5047999;28;20106;-61
2022/11/25 05:21:58;;;;;;;10.98;3.47;;;;;;;7.99;93.25;100810.31;5051277;28;20068;-61
2022/11/25 05:24:24;;;;;;;14.02;4.32;;;;;;;7.98;93.19;100821.47;5053945;28;20119;-60
2022/11/25 05:26:50;;;;;;;14.05;3.85;;;;;;;7.96;93.44;100818.03;5053075;28;20579;-61
2022/11/25 05:29:16;;;;;;;14.70;4.28;;;;;;;7.97;94.14;100817.19;5050170;28;20044;-61
2022/11/25 05:31:41;;;;;;;18.42;4.25;;;;;;;7.96;93.48;100820.59;5046826;28;20048;-61
2022/11/25 05:34:06;;;;;;;14.90;4.30;;;;;;;7.98;93.67;100825.78;5052874;28;20071;-61
2022/11/25 05:36:32;;;;;;;15.02;4.75;;;;;;;7.97;93.99;100824.91;5053415;28;20044;-61
2022/11/25 05:38:58;;;;;;;12.65;4.65;;;;;;;7.97;93.92;100831.75;5054047;28;20900;-62
2022/11/25 05:41:23;;;;;;;13.05;4.72;;;;;;;7.97;93.88;100830.06;5050943;28;20036;-61
2022/11/25 05:43:49;;;;;;;16.48;3.88;;;;;;;7.97;94.24;100835.19;5048044;28;20487;-61
2022/11/25 05:46:14;;;;;;;13.27;4.22;;;;;;;7.96;94.51;100836.03;5053834;28;20043;-61
2022/11/25 05:48:40;;;;;;;12.48;4.65;;;;;;;7.94;93.69;100830.03;5050259;28;20130;-62
2022/11/25 05:51:05;;;;;;;13.63;4.60;;;;;;;7.95;93.90;100839.47;5048337;28;20032;-61
2022/11/25 05:53:31;;;;;;;13.90;3.83;;;;;;;7.96;94.12;100833.47;5046549;28;20063;-61
2022/11/25 05:56:03;;;;;;;21.15;5.20;;;;;;;7.97;94.38;100842.06;5053932;28;20564;-61
2022/11/25 05:58:30;;;;;;;18.00;5.18;;;;;;;7.97;93.96;100842.06;5050098;28;20044;-61
2022/11/25 06:00:57;;;;;;;14.48;4.45;;;;;;;7.96;94.53;100841.19;5046982;28;20033;-61
2022/11/25 06:03:27;;;;;;;13.18;3.83;;;;;;;7.96;94.87;100841.19;5032130;28;20614;-60
2022/11/25 06:05:58;;;;;;;11.77;3.65;;;;;;;7.97;95.04;100842.06;5038845;28;20032;-61
2022/11/25 06:08:25;;;;;;;16.75;4.35;;;;;;;7.99;94.21;100853.22;5038086;28;20033;-61
2022/11/25 06:10:51;;;;;;;17.08;4.70;;;;;;;7.99;94.32;100856.66;5031472;28;20128;-61
2022/11/25 06:13:16;;;;;;;22.75;5.03;;;;;;;7.98;94.33;100852.34;5034502;28;20037;-61
2022/11/25 06:15:43;;;;;;;15.93;4.63;;;;;;;7.99;94.55;100859.22;5038571;28;20041;-60
2022/11/25 06:18:11;;;;;;;13.38;4.90;;;;;;;7.98;95.01;100859.22;5052818;28;20040;-60
2022/11/25 06:20:37;;;;;;;18.70;5.57;;;;;;;7.99;94.48;100860.94;5030694;28;20048;-61
2022/11/25 06:23:03;;;;;;;12.27;4.43;;;;;;;7.99;94.50;100856.66;5032393;28;20037;-60
2022/11/25 06:25:28;;;;;;;14.15;4.20;;;;;;;7.99;95.05;100864.38;5045691;28;20573;-61
2022/11/25 06:27:53;;;;;;;11.10;4.45;;;;;;;8.00;94.42;100862.66;5052304;28;20116;-60
2022/11/25 06:30:19;;;;;;;18.33;4.43;;;;;;;8.00;95.11;100866.09;5040144;28;20122;-61
2022/11/25 06:32:45;;;;;;;20.42;5.13;;;;;;;8.02;94.90;100871.25;5060591;28;20055;-60
2022/11/25 06:35:10;;;;;;;16.15;4.55;;;;;;;8.03;94.99;100870.41;5051367;28;20044;-61
2022/11/25 06:37:36;;;;;;;13.38;3.95;;;;;;;8.02;94.87;100874.69;5053050;28;20188;-61
2022/11/25 06:40:02;;;;;;;11.55;4.40;;;;;;;8.04;95.08;100876.41;5058990;28;20665;-60
2022/11/25 06:42:28;;;;;;;16.63;4.78;;;;;;;8.04;94.77;100879.81;5051182;28;20029;-60
2022/11/25 06:44:53;;;;;;;16.33;4.78;;;;;;;8.05;95.17;100891.84;5052960;28;20040;-60
2022/11/25 06:47:18;;;;;;;17.52;5.00;;;;;;;8.05;94.83;100889.28;5054895;28;20039;-61
2022/11/25 06:49:48;;;;;;;13.63;3.70;;;;;;;8.06;94.65;100892.72;5056713;28;20033;-61
2022/11/25 06:52:14;;;;;;;14.70;4.63;;;;;;;8.06;95.16;100893.56;5056158;28;20896;-60
2022/11/25 06:54:40;;;;;;;14.50;5.28;;;;;;;8.06;95.00;100893.56;5050638;28;20024;-60
2022/11/25 06:57:07;;;;;;;14.52;5.22;;;;;;;8.06;94.98;100895.28;5058118;28;20071;-61
2022/11/25 06:59:32;;;;;;;18.42;4.85;;;;;;;8.06;94.77;100909.03;5052638;28;20032;-61
2022/11/25 07:01:58;;;;;;;14.73;4.25;;;;;;;8.05;94.87;100903.84;5059072;28;20048;-60
2022/11/25 07:04:23;;;;;;;11.68;4.60;;;;;;;8.04;95.21;100904.72;5055343;28;20119;-61
2022/11/25 07:06:49;;;;;;;11.30;3.55;;;;;;;8.02;95.04;100909.84;5056645;28;20102;-60
2022/11/25 07:09:14;;;;;;;13.48;4.20;;;;;;;8.00;95.25;100907.28;5057473;28;20103;-60
2022/11/25 07:11:40;;;;;;;9.45;4.40;;;;;;;8.00;95.46;100903.84;5055368;28;20114;-60
2022/11/25 07:14:09;;;;;;;15.25;4.97;;;;;;;8.00;95.57;100906.41;5058063;28;20040;-60
2022/11/25 07:16:36;;;;;;;14.65;5.13;;;;;;;7.98;95.90;100918.44;5057139;28;20040;-61
2022/11/25 07:19:02;;;;;;;20.00;4.20;;;;;;;7.96;95.36;100909.81;5051173;28;20125;-60
2022/11/25 07:21:29;;;;;;;20.55;5.10;;;;;;;7.91;95.19;100914.09;5050155;28;20036;-60
2022/11/25 07:23:57;;;;;;;18.88;5.15;;;;;;;7.85;94.85;100911.50;5058124;28;20733;-61
2022/11/25 07:26:25;;;;;;;12.65;5.18;;;;;;;7.79;95.01;100914.03;5059649;28;20040;-60
2022/11/25 07:28:53;;;;;;;13.43;4.65;;;;;;;7.72;95.47;100915.72;5055450;28;20067;-61
2022/11/25 07:31:24;;;;;;;15.95;5.50;;;;;;;7.63;94.91;100920.78;5054242;28;20775;-61
2022/11/25 07:33:55;;;;;;;11.57;4.13;;;;;;;7.56;95.30;100931.91;5051670;28;20087;-61
2022/11/25 07:36:21;;;;;;;14.48;5.63;;;;;;;7.49;95.66;100929.28;5057043;28;20535;-59
2022/11/25 07:38:47;;;;;;;11.95;4.63;;;;;;;7.41;95.33;100935.25;5056566;28;20036;-61
2022/11/25 07:41:15;;;;;;;18.98;5.28;;;;;;;7.35;95.13;100935.22;5057290;28;20041;-62
2022/11/25 07:43:44;;;;;;;14.57;5.15;;;;;;;7.33;95.80;100941.16;5053917;28;20044;-61
2022/11/25 07:46:15;;;;;;;14.70;5.47;;;;;;;7.30;96.03;100944.56;5049988;28;20139;-61
2022/11/25 07:48:41;;;;;;;22.70;6.72;;;;;;;7.32;96.38;100949.75;5053966;28;20032;-61
2022/11/25 07:51:25;;;;;;;17.63;5.50;;;;;;;7.32;96.71;100949.75;5056662;28;20028;-60
2022/11/25 07:53:53;;;;;;;17.73;6.40;;;;;;;7.36;96.75;100960.06;5059099;28;20489;-60
2022/11/25 07:56:18;;;;;;;14.43;5.55;;;;;;;7.35;97.08;100966.06;5058524;28;20040;-61
2022/11/25 07:58:44;;;;;;;21.67;7.07;;;;;;;7.34;97.23;100969.47;5052581;28;20098;-61
2022/11/25 08:01:12;;;;;;;16.13;6.03;;;;;;;7.40;97.12;100976.38;5052143;28;20123;-62
2022/11/25 08:03:42;;;;;;;17.77;6.07;;;;;;;7.45;96.44;100975.56;5054881;28;20039;-61
2022/11/25 08:06:10;;;;;;;22.45;5.82;;;;;;;7.54;97.58;100973.88;5054835;28;20037;-61
2022/11/25 08:08:37;;;;;;;23.73;6.78;;;;;;;7.66;97.38;100979.97;5052770;28;20043;-61
2022/11/25 08:11:11;;;;;;;21.02;6.25;;;;;;;7.76;97.34;100978.34;5058536;28;20085;-62
2022/11/25 08:13:36;;;;;;;15.57;5.35;;;;;;;7.82;97.75;100983.53;5056319;28;20375;-61
2022/11/25 08:16:02;;;;;;;10.02;5.13;;;;;;;7.82;97.44;100986.09;5053158;28;20062;-62
2022/11/25 08:18:27;;;;;;;15.80;5.22;;;;;;;7.82;97.40;100980.94;5047919;28;20037;-61
2022/11/25 08:21:00;;;;;;;21.02;5.90;;;;;;;7.83;97.60;100987.84;5047790;28;20040;-62
2022/11/25 08:23:26;;;;;;;14.20;4.90;;;;;;;7.85;97.39;100988.69;5054070;28;20086;-62
2022/11/25 08:25:51;;;;;;;12.40;4.40;;;;;;;7.85;96.92;100991.25;5050079;28;20517;-62
2022/11/25 08:28:17;;;;;;;15.73;4.60;;;;;;;7.84;97.24;100989.53;5054680;28;20035;-62
2022/11/25 08:30:42;;;;;;;11.60;4.32;;;;;;;7.83;96.96;101000.69;5051838;28;20145;-61
2022/11/25 08:33:08;;;;;;;9.80;3.70;;;;;;;7.84;97.35;101000.69;5053771;28;20034;-62
2022/11/25 08:35:36;;;;;;;13.65;3.72;;;;;;;7.87;96.95;101000.72;5057131;28;20040;-62
2022/11/25 08:38:04;;;;;;;10.27;3.58;;;;;;;7.92;97.49;101000.75;5051032;28;20227;-62
2022/11/25 08:40:30;;;;;;;8.85;3.25;;;;;;;7.96;96.76;101016.22;5052284;28;20070;-62
2022/11/25 08:42:55;;;;;;;7.80;3.45;;;;;;;8.02;97.28;101016.25;5051710;28;20758;-62
2022/11/25 08:45:20;;;;;;;11.18;4.13;;;;;;;8.08;97.28;101020.56;5052549;28;20317;-61
2022/11/25 08:47:46;;;;;;;9.35;3.33;;;;;;;8.17;96.82;101022.34;5052594;28;20041;-62
2022/11/25 08:50:13;;;;;;;10.88;3.88;;;;;;;8.22;97.74;101030.97;5051369;28;20037;-62
2022/11/25 08:52:38;;;;;;;8.57;2.80;;;;;;;8.25;97.00;101036.13;5052579;28;20103;-62
2022/11/25 08:55:04;;;;;;;12.52;4.88;;;;;;;8.30;97.47;101037.00;5058145;28;20041;-61
2022/11/25 08:57:30;;;;;;;24.05;8.30;;;;;;;8.35;96.54;101030.16;5054395;28;20024;-61
2022/11/25 08:59:55;;;;;;;17.52;7.35;;;;;;;8.40;96.63;101042.19;5050305;28;20046;-62
2022/11/25 09:02:20;;;;;;;15.25;6.72;;;;;;;8.44;96.75;101038.78;5051837;28;20509;-58
2022/11/25 09:04:46;;;;;;;15.60;7.57;;;;;;;8.48;96.68;101043.13;5053940;28;20239;-58
2022/11/25 09:07:11;;;;;;;18.60;8.27;;;;;;;8.52;96.39;101042.25;5055435;28;20049;-60
2022/11/25 09:09:37;;;;;;;17.23;6.82;;;;;;;8.56;96.51;101045.72;5056822;28;20024;-58
2022/11/25 09:12:03;;;;;;;14.15;5.60;;;;;;;8.59;97.41;101045.72;5052780;28;20038;-58
2022/11/25 09:14:28;;;;;;;12.15;4.68;;;;;;;8.64;97.05;101046.59;5050714;28;20032;-58
2022/11/25 09:16:55;;;;;;;17.63;5.05;;;;;;;8.75;97.06;101051.81;5058840;28;20028;-58
2022/11/25 09:19:21;;;;;;;16.30;5.38;;;;;;;8.81;95.96;101052.66;5053069;28;20037;-58
2022/11/25 09:21:49;;;;;;;10.15;4.78;;;;;;;8.84;95.90;101052.69;5055449;28;20048;-58
2022/11/25 09:24:14;;;;;;;9.90;4.30;;;;;;;8.87;95.42;101062.16;5055443;28;20524;-59
2022/11/25 09:26:41;;;;;;;10.80;4.35;;;;;;;8.89;95.89;101058.72;5059399;28;20032;-59
2022/11/25 09:29:06;;;;;;;9.00;3.70;;;;;;;8.92;95.61;101069.06;5050792;28;20102;-58
2022/11/25 09:31:32;;;;;;;8.80;3.67;;;;;;;8.95;96.21;101078.50;5054037;28;20037;-58
2022/11/25 09:33:58;;;;;;;8.48;3.78;;;;;;;9.00;95.44;101080.25;5055332;28;20390;-59
2022/11/25 09:36:23;;;;;;;8.02;3.28;;;;;;;9.04;96.08;101081.97;5055497;28;20114;-58
2022/11/25 09:38:50;;;;;;;5.90;2.92;;;;;;;9.07;95.85;101084.56;5056860;28;20036;-58
2022/11/25 09:47:45;;;;;;;8.25;3.13;;;;;;;9.32;94.78;101095.78;5056434;28;20044;-59
2022/11/25 09:50:37;;;;;;;7.93;3.00;;;;;;;9.42;95.34;101099.25;5056574;28;20028;-58
2022/11/25 09:53:40;;;;;;;8.23;2.72;;;;;;;9.47;94.06;101103.53;5057061;28;20047;-58
2022/11/25 09:56:13;;;;;;;6.85;2.78;;;;;;;9.53;93.57;101106.13;5054942;28;20037;-58
2022/11/25 09:58:46;;;;;;;3.88;2.42;;;;;;;9.57;93.00;101113.06;5054010;28;20044;-58
2022/11/25 10:01:22;;;;;;;7.75;3.05;;;;;;;9.61;93.16;101117.34;5054880;28;20389;-58
2022/11/25 10:04:02;;;;;;;7.72;2.88;;;;;;;9.67;91.77;101119.94;5052018;28;20064;-58
2022/11/25 10:06:30;;;;;;;7.18;2.42;;;;;;;9.66;92.20;101117.38;5053029;28;20087;-61
2022/11/25 10:08:58;;;;;;;9.75;2.60;;;;;;;9.63;91.63;101123.41;5061180;28;20032;-62
2022/11/25 10:11:42;;;;;;;4.25;2.10;;;;;;;9.61;91.89;101116.53;5052671;28;20033;-62
2022/11/25 10:14:07;;;;;;;5.68;2.65;;;;;;;9.59;91.84;101118.22;5054516;28;20037;-65
2022/11/25 10:16:56;;;;;;;7.85;2.60;;;;;;;9.59;91.67;101120.78;5056890;28;20106;-66
2022/11/25 10:19:45;;;;;;;6.22;2.63;;;;;;;9.63;92.53;101123.41;5055166;28;20085;-66
2022/11/25 10:22:22;;;;;;;11.25;2.67;;;;;;;9.76;91.09;101126.88;5049121;28;20044;-66
2022/11/25 10:24:49;;;;;;;6.95;1.92;;;;;;;9.86;90.47;101120.81;5058616;28;20056;-66
2022/11/25 10:27:23;;;;;;;7.28;2.60;;;;;;;9.93;89.74;101125.13;5056921;28;20150;-66
2022/11/25 10:29:58;;;;;;;6.75;1.98;;;;;;;10.02;89.39;101135.47;5032632;28;20041;-66
2022/11/25 10:32:26;;;;;;;5.68;1.77;;;;;;;10.13;87.32;101131.16;5038406;28;20086;-65
2022/11/25 10:34:59;;;;;;;13.02;2.97;;;;;;;10.38;82.48;101128.53;5040013;28;20049;-66
2022/11/25 10:37:30;;;;;;;6.78;1.90;;;;;;;10.47;82.53;101134.56;5036789;28;20428;-66
2022/11/25 10:39:56;;;;;;;7.28;2.15;;;;;;;10.52;83.38;101137.13;5038167;28;20048;-66
2022/11/25 10:42:24;;;;;;;12.52;2.45;;;;;;;10.57;83.65;101140.53;5034598;28;20045;-66
2022/11/25 10:44:50;;;;;;;5.45;1.65;;;;;;;10.60;83.40;101137.94;5038045;28;20034;-66
2022/11/25 10:47:57;;;;;;;11.20;2.50;;;;;;;10.63;83.47;101141.38;5035613;28;20502;-66
2022/11/25 10:51:01;;;;;;;7.10;1.77;;;;;;;10.68;83.27;101150.00;5033211;28;20139;-66
2022/11/25 10:53:29;;;;;;;12.48;1.77;;;;;;;10.77;82.21;101149.13;5037362;28;20660;-65
2022/11/25 10:56:04;;;;;;;10.00;2.17;;;;;;;10.90;79.20;101149.91;5037798;28;20132;-66
2022/11/25 10:58:32;;;;;;;;;;;;;;;10.92;79.07;101158.56;5036974;28;20108;-65
2022/11/25 11:01:21;;;;;;;11.85;1.80;;;;;;;10.96;79.37;101163.69;5036316;28;20491;-66
2022/11/25 11:04:03;;;;;;;6.35;2.30;;;;;;;10.95;78.24;101161.97;5034541;28;20041;-66
2022/11/25 11:06:40;;;;;;;7.47;1.95;;;;;;;11.13;77.62;101166.22;5037570;28;20039;-66
2022/11/25 11:09:28;;;;;;;9.80;2.03;;;;;;;11.35;76.21;101163.53;5035536;28;20027;-66
2022/11/25 11:11:54;;;;;;;8.93;1.80;;;;;;;11.59;77.49;101164.28;5040312;28;20047;-66
2022/11/25 11:14:20;;;;;;;13.02;2.00;;;;;;;11.84;75.06;101164.09;5037864;28;20296;-66
2022/11/25 11:16:54;;;;;;;11.02;2.38;;;;;;;12.03;74.60;101170.00;5039085;28;20051;-66
2022/11/25 11:19:28;;;;;;;9.33;2.47;;;;;;;12.21;74.08;101163.81;5036064;28;20106;-66
2022/11/25 11:21:55;;;;;;;13.00;2.55;;;;;;;12.37;73.69;101174.06;5037206;28;20813;-66
2022/11/25 11:24:41;;;;;;;9.75;2.13;;;;;;;12.54;71.99;101173.03;5039050;28;20041;-64
2022/11/25 11:27:19;;;;;;;7.40;2.05;;;;;;;12.58;71.91;101175.59;5038236;28;20502;-66
2022/11/25 11:29:45;;;;;;;11.30;2.25;;;;;;;12.65;72.56;101174.63;5031784;28;20708;-65
2022/11/25 11:32:23;;;;;;;10.27;2.28;;;;;;;12.67;71.48;101172.88;5037461;28;20033;-66
2022/11/25 11:35:06;;;;;;;9.55;2.20;;;;;;;12.70;72.74;101178.03;5033445;28;20090;-62
2022/11/25 11:37:40;;;;;;;15.80;2.63;;;;;;;12.67;70.63;101185.00;5031229;28;20770;-62
2022/11/25 11:40:37;;;;;;;12.35;2.20;;;;;;;12.59;71.16;101185.06;5037099;28;20045;-62
2022/11/25 11:43:19;;;;;;;8.07;2.25;;;;;;;12.60;72.12;101186.78;5028212;28;20044;-63
2022/11/25 11:45:53;;;;;;;15.30;3.00;;;;;;;12.63;71.38;101191.06;5035245;28;20124;-62